Terminal Aerodrome Forecast
Issued by NWS

Home | Current Version | Previous Version | Text Only | Print | Product List | Glossary On
Versions: 1 2 3 4 5 6 7 8 9 10 11 12 13 14 15
894
FTUS46 KMTR 290526
TAFMRY
TAF
KMRY 290526Z 2906/3006 22004KT P6SM BKN007
     FM290800 VRB03KT P6SM OVC008
     FM291700 26003KT P6SM SCT015
     FM291900 26008KT P6SM SKC
     FM300400 25005KT P6SM SCT012=

USA.gov is the U.S. government's official web portal to all federal, state and local government web resources and services.